Relevés horaires Oostende (Belgique)


Relevés horaires à Oostende - Mardi 30 Août 2022
Heure UTC1 Température [°C] Vent [km/h] Hum. [%] Pres.4 [hPa] Visi. [Km] Nébu. [octa] Préc.5 [mm] Cond.
2m. Res. Ros. Dir.2 Vit. Moy. Raf.3
23:00 18.3 18.3 13.6 NE 11.1 14.8 20.4 74 1022.1(-0.2/3h) 30 6/8 -- --
22:00 18.7 18.7 13.3 NE 13.0 14.8 22.2 71 1022.1(0.5/3h) 30 6/8 -- --
21:00 18.8 18.8 12.5 NE 14.8 16.7 24.1 67 1022(1.0/3h) 30 6/8 -- --
20:00 18.9 18.9 12.0 NE 14.8 16.7 24.1 64 1022(1.1/3h) 30 6/8 -- --
19:00 19.2 19.2 12.7 NE 14.8 16.7 22.2 66 1021.6(0.6/3h) 30 7/8 -- --
18:00 20.0 20.0 11.8 NE 16.7 -- -- 59 1021.1(0.0/3h) 30 6/8 0/12h
--
17:00 20.3 20.3 12.6 NE 16.7 18.5 25.9 61 1020.9(-0.4/3h) 30 7/8 -- --
16:00 21.4 21.4 12.7 NNE 16.7 16.7 24.1 58 1021(-0.3/3h) 30 5/8 -- --
15:00 21.8 21.8 13.0 NNE 16.7 16.7 24.1 57 1021.1(-0.1/3h) 30 5/8 -- --
14:00 22.7 22.7 13.6 NNE 14.8 16.7 22.2 56 1021.2(-0.3/3h) 30 4/8 -- --
13:00 21.5 21.5 13.6 NNE 16.7 16.7 22.2 61 1021.3(-0.1/3h) 30 6/8 -- --
12:00 22.6 22.6 14.5 NE 14.8 -- -- 60 1021.2(0.1/3h) 30 7/8 0/6h
--
11:00 21.5 21.5 15.6 NNE 13.0 14.8 18.5 69 1021.5(0.5/3h) 30 7/8 -- --
10:00 20.5 20.5 14.7 NE 13.0 13.0 18.5 69 1021.4(0.4/3h) 30 7/8 -- --
09:00 20.2 20.2 15.0 NE 11.1 11.1 14.8 72 1021.3(0.3/3h) 30 7/8 -- --
08:00 18.9 18.9 14.3 NE 7.4 9.3 13.0 75 1020.9(0.1/3h) 30 7/8 -- --
07:00 17.5 17.5 14.4 ENE 7.4 7.4 11.1 82 1021(0.2/3h) 25 7/8 -- --
06:00 16.6 16.6 14.1 ENE 7.4 -- -- 85 1021.1(0.0/3h) 13 6/8 0/12h
--
05:00 16.0 16.0 13.8 NE 7.4 7.4 11.1 87 1020.8(-0.5/3h) 13 5/8 -- --
04:00 15.9 15.9 14.2 NE 7.4 7.4 9.3 90 1020.8(-0.4/3h) 13 5/8 -- --
03:00 15.5 15.5 13.8 ENE 5.6 9.3 11.1 90 1021(-0.5/3h) 13 5/8 -- --
02:00 15.9 15.9 13.8 ENE 5.6 9.3 11.1 87 1021.3(-0.3/3h) 35 5/8 -- --
01:00 16.5 16.5 14.0 ENE 7.4 7.4 11.1 85 1021.3(-0.5/3h) 35 5/8 -- --
00:00 16.6 16.6 12.8 ENE 7.4 -- -- 78 1021.5(0.1/3h) 35 5/8 0/6h
0/24h
--

1 Coordinated Universal Time. Actuellement il est 06:00 locale et 04:00 UTC.

2 Le vent souffle depuis la direction indiquée vers la direction oposée.

3 Les rafales max. sont disponible 40 min après l'heure du relevé.

4 Pour les stations d'altitude (plus de 600m) le géopotentiel du niveau le plus proche de la pression obligatoire est indiqué.

5 Les stations disposant d'un diffuseur peuvent indiquer "trace". Cela signifie que des précipitations ont touchés le sol mais que la quantité est inférieure à 0.1 mm.

Récapitulatif de la journée
Température [°C] Vent [km/h] Ensoleillement4 [h] Precipitations totale5 [mm] Pression [Hpa]
Min1 Max.2 Moy.3 Max. Min Max.
15.3 23.0 13.1 25.9 0 h 0 min 0 1020.8 1022.1

1 Température minimale relevée entre 18:00 UTC la veille et 18:00 UTC le jour donné.

2 Température maximale relevée entre 06:00 UTC le jour donné et 06:00 UTC le lendemain.

3 Vent moyen de la journée basé sur les relevés horaires.

4 Ensoleillement en heures relevé entre 06:00 UTC la veille et 06:00 UTC le jour donné.

5 Précipitations totales tombées entre 06:00 UTC la jour donné et 06:00 UTC le lendemain.

Graphiques horaires